sensor_id;sensor_type;location;lat;lon;timestamp;pressure;altitude;pressure_sealevel;temperature;humidity
64853;BME280;56050;55.558;-4.644;2023-09-19T00:01:19;99669.75;;;14.25;65.01
64853;BME280;56050;55.558;-4.644;2023-09-19T00:03:45;99664.63;;;14.27;65.00
64853;BME280;56050;55.558;-4.644;2023-09-19T00:06:11;99656.50;;;14.27;65.13
64853;BME280;56050;55.558;-4.644;2023-09-19T00:08:38;99658.47;;;14.26;65.08
64853;BME280;56050;55.558;-4.644;2023-09-19T00:11:04;99650.78;;;14.25;65.34
64853;BME280;56050;55.558;-4.644;2023-09-19T00:13:34;99643.84;;;14.24;65.28
64853;BME280;56050;55.558;-4.644;2023-09-19T00:16:01;99650.88;;;14.21;65.34
64853;BME280;56050;55.558;-4.644;2023-09-19T00:18:33;99634.13;;;14.13;65.86
64853;BME280;56050;55.558;-4.644;2023-09-19T00:21:00;99620.78;;;14.06;65.80
64853;BME280;56050;55.558;-4.644;2023-09-19T00:23:25;99638.34;;;14.02;65.95
64853;BME280;56050;55.558;-4.644;2023-09-19T00:25:52;99658.47;;;14.01;66.27
64853;BME280;56050;55.558;-4.644;2023-09-19T00:28:18;99641.47;;;14.00;66.09
64853;BME280;56050;55.558;-4.644;2023-09-19T00:30:45;99643.75;;;14.02;66.31
64853;BME280;56050;55.558;-4.644;2023-09-19T00:33:15;99633.69;;;14.02;66.32
64853;BME280;56050;55.558;-4.644;2023-09-19T00:38:13;99636.81;;;14.01;66.17
64853;BME280;56050;55.558;-4.644;2023-09-19T00:40:45;99638.34;;;14.02;66.17
64853;BME280;56050;55.558;-4.644;2023-09-19T00:43:11;99639.13;;;14.02;65.96
64853;BME280;56050;55.558;-4.644;2023-09-19T00:45:37;99636.72;;;14.04;66.16
64853;BME280;56050;55.558;-4.644;2023-09-19T00:48:04;99634.00;;;14.04;66.19
64853;BME280;56050;55.558;-4.644;2023-09-19T00:50:31;99626.97;;;14.07;66.15
64853;BME280;56050;55.558;-4.644;2023-09-19T00:52:58;99630.75;;;14.09;65.91
64853;BME280;56050;55.558;-4.644;2023-09-19T00:55:25;99631.06;;;14.11;66.02
64853;BME280;56050;55.558;-4.644;2023-09-19T00:57:51;99627.16;;;14.12;66.09
64853;BME280;56050;55.558;-4.644;2023-09-19T01:00:18;99620.56;;;14.13;66.27
64853;BME280;56050;55.558;-4.644;2023-09-19T01:02:46;99634.13;;;14.13;66.26
64853;BME280;56050;55.558;-4.644;2023-09-19T01:05:13;99633.03;;;14.11;66.10
64853;BME280;56050;55.558;-4.644;2023-09-19T01:07:38;99632.06;;;14.05;66.27
64853;BME280;56050;55.558;-4.644;2023-09-19T01:10:11;99621.03;;;13.99;66.37
64853;BME280;56050;55.558;-4.644;2023-09-19T01:15:28;99614.09;;;13.98;66.54
64853;BME280;56050;55.558;-4.644;2023-09-19T01:21:18;99613.78;;;13.96;66.60
64853;BME280;56050;55.558;-4.644;2023-09-19T01:26:35;99598.28;;;13.97;66.78
64853;BME280;56050;55.558;-4.644;2023-09-19T01:31:51;99600.34;;;13.93;66.72
64853;BME280;56050;55.558;-4.644;2023-09-19T01:34:19;99595.03;;;13.89;66.92
64853;BME280;56050;55.558;-4.644;2023-09-19T01:36:45;99594.81;;;13.84;67.08
64853;BME280;56050;55.558;-4.644;2023-09-19T01:39:12;99588.78;;;13.80;67.09
64853;BME280;56050;55.558;-4.644;2023-09-19T01:41:46;99579.56;;;13.77;67.15
64853;BME280;56050;55.558;-4.644;2023-09-19T01:44:21;99578.06;;;13.76;67.36
64853;BME280;56050;55.558;-4.644;2023-09-19T01:46:47;99582.59;;;13.79;67.34
64853;BME280;56050;55.558;-4.644;2023-09-19T01:49:25;99562.88;;;13.79;67.21
64853;BME280;56050;55.558;-4.644;2023-09-19T01:52:04;99557.78;;;13.81;67.43
64853;BME280;56050;55.558;-4.644;2023-09-19T01:54:34;99550.00;;;13.83;67.35
64853;BME280;56050;55.558;-4.644;2023-09-19T01:57:14;99561.47;;;13.87;67.46
64853;BME280;56050;55.558;-4.644;2023-09-19T01:59:45;99563.31;;;13.90;67.13
64853;BME280;56050;55.558;-4.644;2023-09-19T02:02:14;99559.84;;;13.89;66.99
64853;BME280;56050;55.558;-4.644;2023-09-19T02:04:42;99569.38;;;13.81;67.19
64853;BME280;56050;55.558;-4.644;2023-09-19T02:07:07;99562.06;;;13.69;67.40
64853;BME280;56050;55.558;-4.644;2023-09-19T02:09:33;99540.09;;;13.54;67.90
64853;BME280;56050;55.558;-4.644;2023-09-19T02:12:01;99540.41;;;13.44;68.01
64853;BME280;56050;55.558;-4.644;2023-09-19T02:14:27;99527.53;;;13.35;68.31
64853;BME280;56050;55.558;-4.644;2023-09-19T02:16:55;99528.41;;;13.32;68.53
64853;BME280;56050;55.558;-4.644;2023-09-19T02:19:21;99543.88;;;13.32;68.75
64853;BME280;56050;55.558;-4.644;2023-09-19T02:21:47;99520.59;;;13.34;68.97
64853;BME280;56050;55.558;-4.644;2023-09-19T02:24:14;99524.38;;;13.37;69.03
64853;BME280;56050;55.558;-4.644;2023-09-19T02:26:40;99515.00;;;13.41;68.79
64853;BME280;56050;55.558;-4.644;2023-09-19T02:29:06;99521.78;;;13.46;68.89
64853;BME280;56050;55.558;-4.644;2023-09-19T02:31:31;99523.94;;;13.51;68.70
64853;BME280;56050;55.558;-4.644;2023-09-19T02:33:57;99521.47;;;13.57;68.57
64853;BME280;56050;55.558;-4.644;2023-09-19T02:36:22;99506.19;;;13.63;68.68
64853;BME280;56050;55.558;-4.644;2023-09-19T02:38:49;99505.63;;;13.68;68.46
64853;BME280;56050;55.558;-4.644;2023-09-19T02:41:14;99491.53;;;13.73;68.50
64853;BME280;56050;55.558;-4.644;2023-09-19T02:43:40;99492.50;;;13.79;68.29
64853;BME280;56050;55.558;-4.644;2023-09-19T02:46:08;99495.09;;;13.82;68.10
64853;BME280;56050;55.558;-4.644;2023-09-19T02:48:34;99494.78;;;13.80;68.34
64853;BME280;56050;55.558;-4.644;2023-09-19T02:51:01;99487.97;;;13.76;68.43
64853;BME280;56050;55.558;-4.644;2023-09-19T02:53:27;99473.81;;;13.72;68.65
64853;BME280;56050;55.558;-4.644;2023-09-19T02:55:52;99471.53;;;13.70;68.82
64853;BME280;56050;55.558;-4.644;2023-09-19T02:58:18;99462.22;;;13.71;68.59
64853;BME280;56050;55.558;-4.644;2023-09-19T03:00:43;99443.59;;;13.73;68.75
64853;BME280;56050;55.558;-4.644;2023-09-19T03:03:12;99456.25;;;13.76;68.65
64853;BME280;56050;55.558;-4.644;2023-09-19T03:05:38;99447.72;;;13.78;68.85
64853;BME280;56050;55.558;-4.644;2023-09-19T03:08:04;99446.81;;;13.81;68.78
64853;BME280;56050;55.558;-4.644;2023-09-19T03:10:30;99433.59;;;13.83;69.00
64853;BME280;56050;55.558;-4.644;2023-09-19T03:12:56;99415.28;;;13.87;69.02
64853;BME280;56050;55.558;-4.644;2023-09-19T03:15:22;99405.50;;;13.89;68.82
64853;BME280;56050;55.558;-4.644;2023-09-19T03:17:48;99410.50;;;13.91;68.90
64853;BME280;56050;55.558;-4.644;2023-09-19T03:20:14;99388.41;;;13.92;68.83
64853;BME280;56050;55.558;-4.644;2023-09-19T03:22:45;99396.84;;;13.94;68.84
64853;BME280;56050;55.558;-4.644;2023-09-19T03:25:11;99378.97;;;13.97;68.56
64853;BME280;56050;55.558;-4.644;2023-09-19T03:27:38;99389.78;;;13.97;68.44
64853;BME280;56050;55.558;-4.644;2023-09-19T03:30:04;99376.69;;;13.95;68.52
64853;BME280;56050;55.558;-4.644;2023-09-19T03:32:37;99377.56;;;13.92;68.64
64853;BME280;56050;55.558;-4.644;2023-09-19T03:35:08;99378.13;;;13.87;68.41
64853;BME280;56050;55.558;-4.644;2023-09-19T03:37:40;99369.81;;;13.82;68.69
64853;BME280;56050;55.558;-4.644;2023-09-19T03:40:06;99369.94;;;13.78;68.67
64853;BME280;56050;55.558;-4.644;2023-09-19T03:42:32;99381.34;;;13.73;68.73
64853;BME280;56050;55.558;-4.644;2023-09-19T03:44:58;99370.66;;;13.70;68.93
64853;BME280;56050;55.558;-4.644;2023-09-19T03:47:25;99368.81;;;13.67;68.89
64853;BME280;56050;55.558;-4.644;2023-09-19T03:49:50;99365.78;;;13.65;69.02
64853;BME280;56050;55.558;-4.644;2023-09-19T03:52:17;99364.28;;;13.64;69.27
64853;BME280;56050;55.558;-4.644;2023-09-19T03:54:42;99372.81;;;13.62;69.13
64853;BME280;56050;55.558;-4.644;2023-09-19T03:57:08;99372.06;;;13.62;69.27
64853;BME280;56050;55.558;-4.644;2023-09-19T03:59:34;99368.63;;;13.61;69.37
64853;BME280;56050;55.558;-4.644;2023-09-19T04:02:01;99370.13;;;13.62;69.15
64853;BME280;56050;55.558;-4.644;2023-09-19T04:04:27;99363.22;;;13.61;69.45
64853;BME280;56050;55.558;-4.644;2023-09-19T04:06:54;99354.75;;;13.59;69.19
64853;BME280;56050;55.558;-4.644;2023-09-19T04:09:19;99342.09;;;13.56;69.45
64853;BME280;56050;55.558;-4.644;2023-09-19T04:11:45;99349.91;;;13.54;69.42
64853;BME280;56050;55.558;-4.644;2023-09-19T04:14:10;99341.50;;;13.52;69.37
64853;BME280;56050;55.558;-4.644;2023-09-19T04:16:36;99335.44;;;13.48;69.63
64853;BME280;56050;55.558;-4.644;2023-09-19T04:19:02;99327.78;;;13.46;69.57
64853;BME280;56050;55.558;-4.644;2023-09-19T04:21:28;99336.31;;;13.45;69.59
64853;BME280;56050;55.558;-4.644;2023-09-19T04:23:54;99335.25;;;13.42;69.57
64853;BME280;56050;55.558;-4.644;2023-09-19T04:26:20;99343.81;;;13.41;69.53
64853;BME280;56050;55.558;-4.644;2023-09-19T04:28:45;99339.28;;;13.38;69.46
64853;BME280;56050;55.558;-4.644;2023-09-19T04:31:11;99328.91;;;13.36;69.49
64853;BME280;56050;55.558;-4.644;2023-09-19T04:33:37;99341.78;;;13.32;69.46
64853;BME280;56050;55.558;-4.644;2023-09-19T04:36:03;99336.47;;;13.29;69.46
64853;BME280;56050;55.558;-4.644;2023-09-19T04:38:30;99331.22;;;13.25;69.72
64853;BME280;56050;55.558;-4.644;2023-09-19T04:40:59;99337.03;;;13.24;69.55
64853;BME280;56050;55.558;-4.644;2023-09-19T04:43:25;99352.84;;;13.25;69.84
64853;BME280;56050;55.558;-4.644;2023-09-19T04:45:51;99349.38;;;13.25;69.68
64853;BME280;56050;55.558;-4.644;2023-09-19T04:48:21;99355.97;;;13.24;69.48
64853;BME280;56050;55.558;-4.644;2023-09-19T04:50:48;99338.78;;;13.18;69.47
64853;BME280;56050;55.558;-4.644;2023-09-19T04:53:14;99335.88;;;13.12;69.54
64853;BME280;56050;55.558;-4.644;2023-09-19T04:55:39;99336.09;;;13.05;69.57
64853;BME280;56050;55.558;-4.644;2023-09-19T04:58:05;99347.88;;;12.98;69.72
64853;BME280;56050;55.558;-4.644;2023-09-19T05:00:30;99335.78;;;12.90;69.53
64853;BME280;56050;55.558;-4.644;2023-09-19T05:03:00;99338.38;;;12.81;69.87
64853;BME280;56050;55.558;-4.644;2023-09-19T05:05:26;99328.13;;;12.76;69.74
64853;BME280;56050;55.558;-4.644;2023-09-19T05:07:51;99331.38;;;12.71;69.66
64853;BME280;56050;55.558;-4.644;2023-09-19T05:10:18;99327.72;;;12.65;69.77
64853;BME280;56050;55.558;-4.644;2023-09-19T05:12:44;99318.66;;;12.59;69.84
64853;BME280;56050;55.558;-4.644;2023-09-19T05:15:14;99326.66;;;12.50;69.88
64853;BME280;56050;55.558;-4.644;2023-09-19T05:17:50;99319.50;;;12.44;69.88
64853;BME280;56050;55.558;-4.644;2023-09-19T05:20:17;99303.41;;;12.40;69.91
64853;BME280;56050;55.558;-4.644;2023-09-19T05:22:44;99312.81;;;12.35;69.98
64853;BME280;56050;55.558;-4.644;2023-09-19T05:25:11;99315.19;;;12.33;70.04
64853;BME280;56050;55.558;-4.644;2023-09-19T05:27:42;99314.13;;;12.31;70.03
64853;BME280;56050;55.558;-4.644;2023-09-19T05:30:08;99309.91;;;12.30;70.12
64853;BME280;56050;55.558;-4.644;2023-09-19T05:32:33;99304.50;;;12.30;70.13
64853;BME280;56050;55.558;-4.644;2023-09-19T05:34:59;99291.75;;;12.30;70.09
64853;BME280;56050;55.558;-4.644;2023-09-19T05:37:24;99301.38;;;12.31;69.94
64853;BME280;56050;55.558;-4.644;2023-09-19T05:39:51;99276.31;;;12.31;69.91
64853;BME280;56050;55.558;-4.644;2023-09-19T05:42:18;99283.97;;;12.32;69.82
64853;BME280;56050;55.558;-4.644;2023-09-19T05:44:43;99282.47;;;12.31;69.92
64853;BME280;56050;55.558;-4.644;2023-09-19T05:47:09;99282.91;;;12.30;69.72
64853;BME280;56050;55.558;-4.644;2023-09-19T05:49:35;99284.06;;;12.29;69.81
64853;BME280;56050;55.558;-4.644;2023-09-19T05:52:05;99281.38;;;12.29;69.93
64853;BME280;56050;55.558;-4.644;2023-09-19T05:54:30;99291.75;;;12.30;69.92
64853;BME280;56050;55.558;-4.644;2023-09-19T05:56:56;99287.53;;;12.29;69.94
64853;BME280;56050;55.558;-4.644;2023-09-19T05:59:23;99286.03;;;12.28;69.86
64853;BME280;56050;55.558;-4.644;2023-09-19T06:01:48;99297.56;;;12.29;69.83
64853;BME280;56050;55.558;-4.644;2023-09-19T06:04:14;99289.91;;;12.27;69.77
64853;BME280;56050;55.558;-4.644;2023-09-19T06:06:39;99303.84;;;12.26;69.89
64853;BME280;56050;55.558;-4.644;2023-09-19T06:09:06;99289.59;;;12.25;69.84
64853;BME280;56050;55.558;-4.644;2023-09-19T06:11:36;99280.72;;;12.25;69.80
64853;BME280;56050;55.558;-4.644;2023-09-19T06:14:03;99264.53;;;12.25;69.85
64853;BME280;56050;55.558;-4.644;2023-09-19T06:16:29;99256.44;;;12.25;69.93
64853;BME280;56050;55.558;-4.644;2023-09-19T06:18:55;99262.16;;;12.27;69.90
64853;BME280;56050;55.558;-4.644;2023-09-19T06:21:22;99262.47;;;12.29;69.76
64853;BME280;56050;55.558;-4.644;2023-09-19T06:23:48;99252.78;;;12.31;69.71
64853;BME280;56050;55.558;-4.644;2023-09-19T06:26:13;99255.78;;;12.33;69.84
64853;BME280;56050;55.558;-4.644;2023-09-19T06:28:39;99258.81;;;12.35;69.67
64853;BME280;56050;55.558;-4.644;2023-09-19T06:31:05;99258.81;;;12.35;69.78
64853;BME280;56050;55.558;-4.644;2023-09-19T06:33:35;99259.13;;;12.37;69.72
64853;BME280;56050;55.558;-4.644;2023-09-19T06:36:07;99262.56;;;12.38;69.77
64853;BME280;56050;55.558;-4.644;2023-09-19T06:38:33;99252.53;;;12.38;69.60
64853;BME280;56050;55.558;-4.644;2023-09-19T06:41:01;99254.78;;;12.40;69.75
64853;BME280;56050;55.558;-4.644;2023-09-19T06:43:29;99261.72;;;12.41;69.61
64853;BME280;56050;55.558;-4.644;2023-09-19T06:45:56;99267.13;;;12.41;69.59
64853;BME280;56050;55.558;-4.644;2023-09-19T06:48:23;99257.84;;;12.42;69.69
64853;BME280;56050;55.558;-4.644;2023-09-19T06:50:50;99262.78;;;12.44;69.48
64853;BME280;56050;55.558;-4.644;2023-09-19T06:53:16;99256.97;;;12.45;69.40
64853;BME280;56050;55.558;-4.644;2023-09-19T06:55:42;99251.88;;;12.47;69.72
64853;BME280;56050;55.558;-4.644;2023-09-19T06:58:10;99237.06;;;12.52;69.82
64853;BME280;56050;55.558;-4.644;2023-09-19T07:00:36;99238.03;;;12.58;69.50
64853;BME280;56050;55.558;-4.644;2023-09-19T07:03:07;99219.31;;;12.63;69.51
64853;BME280;56050;55.558;-4.644;2023-09-19T07:05:39;99223.00;;;12.69;69.79
64853;BME280;56050;55.558;-4.644;2023-09-19T07:08:06;99213.25;;;12.72;69.42
64853;BME280;56050;55.558;-4.644;2023-09-19T07:10:33;99212.50;;;12.71;69.23
64853;BME280;56050;55.558;-4.644;2023-09-19T07:13:05;99208.59;;;12.72;69.35
64853;BME280;56050;55.558;-4.644;2023-09-19T07:15:38;99198.22;;;12.71;69.03
64853;BME280;56050;55.558;-4.644;2023-09-19T07:18:07;99195.53;;;12.71;69.25
64853;BME280;56050;55.558;-4.644;2023-09-19T07:20:36;99205.16;;;12.72;68.99
64853;BME280;56050;55.558;-4.644;2023-09-19T07:23:02;99210.09;;;12.73;69.19
64853;BME280;56050;55.558;-4.644;2023-09-19T07:25:28;99213.56;;;12.74;69.23
64853;BME280;56050;55.558;-4.644;2023-09-19T07:27:57;99204.59;;;12.77;69.23
64853;BME280;56050;55.558;-4.644;2023-09-19T07:30:26;99206.88;;;12.78;69.21
64853;BME280;56050;55.558;-4.644;2023-09-19T07:32:52;99203.41;;;12.78;69.26
64853;BME280;56050;55.558;-4.644;2023-09-19T07:35:18;99206.09;;;12.78;69.30
64853;BME280;56050;55.558;-4.644;2023-09-19T07:37:50;99210.75;;;12.77;69.07
64853;BME280;56050;55.558;-4.644;2023-09-19T07:40:17;99201.13;;;12.76;69.10
64853;BME280;56050;55.558;-4.644;2023-09-19T07:42:42;99201.47;;;12.78;69.25
64853;BME280;56050;55.558;-4.644;2023-09-19T07:45:10;99200.25;;;12.79;69.23
64853;BME280;56050;55.558;-4.644;2023-09-19T07:47:49;99196.06;;;12.78;69.23
64853;BME280;56050;55.558;-4.644;2023-09-19T07:50:19;99183.28;;;12.79;69.16
64853;BME280;56050;55.558;-4.644;2023-09-19T07:52:48;99165.44;;;12.81;69.22
64853;BME280;56050;55.558;-4.644;2023-09-19T07:55:16;99178.53;;;12.83;69.45
64853;BME280;56050;55.558;-4.644;2023-09-19T07:57:43;99183.06;;;12.86;69.21
64853;BME280;56050;55.558;-4.644;2023-09-19T08:00:09;99171.03;;;12.87;69.24
64853;BME280;56050;55.558;-4.644;2023-09-19T08:02:40;99174.06;;;12.89;69.24
64853;BME280;56050;55.558;-4.644;2023-09-19T08:05:08;99162.38;;;12.92;69.09
64853;BME280;56050;55.558;-4.644;2023-09-19T08:07:42;99154.13;;;12.95;69.27
64853;BME280;56050;55.558;-4.644;2023-09-19T08:10:08;99159.13;;;12.97;69.13
64853;BME280;56050;55.558;-4.644;2023-09-19T08:12:44;99155.94;;;12.98;69.15
64853;BME280;56050;55.558;-4.644;2023-09-19T08:15:18;99164.81;;;12.99;69.29
64853;BME280;56050;55.558;-4.644;2023-09-19T08:17:48;99156.28;;;13.01;69.41
64853;BME280;56050;55.558;-4.644;2023-09-19T08:20:14;99163.94;;;13.02;69.14
64853;BME280;56050;55.558;-4.644;2023-09-19T08:22:49;99166.19;;;13.04;69.38
64853;BME280;56050;55.558;-4.644;2023-09-19T08:25:18;99162.22;;;13.08;69.36
64853;BME280;56050;55.558;-4.644;2023-09-19T08:27:48;99154.41;;;13.10;69.48
64853;BME280;56050;55.558;-4.644;2023-09-19T08:30:18;99159.69;;;13.14;69.36
64853;BME280;56050;55.558;-4.644;2023-09-19T08:32:45;99152.22;;;13.18;69.37
64853;BME280;56050;55.558;-4.644;2023-09-19T08:35:13;99154.03;;;13.21;69.40
64853;BME280;56050;55.558;-4.644;2023-09-19T08:37:39;99158.56;;;13.24;69.11
64853;BME280;56050;55.558;-4.644;2023-09-19T08:40:05;99151.97;;;13.25;69.16
64853;BME280;56050;55.558;-4.644;2023-09-19T08:42:50;99156.16;;;13.26;69.44
64853;BME280;56050;55.558;-4.644;2023-09-19T08:45:16;99151.38;;;13.30;69.22
64853;BME280;56050;55.558;-4.644;2023-09-19T08:48:17;99141.19;;;13.34;69.36
64853;BME280;56050;55.558;-4.644;2023-09-19T08:51:06;99140.94;;;13.41;69.46
64853;BME280;56050;55.558;-4.644;2023-09-19T08:53:41;99148.75;;;13.48;69.25
64853;BME280;56050;55.558;-4.644;2023-09-19T08:56:10;99146.88;;;13.58;69.30
64853;BME280;56050;55.558;-4.644;2023-09-19T08:58:45;99134.13;;;13.67;69.46
64853;BME280;56050;55.558;-4.644;2023-09-19T09:01:15;99120.94;;;13.78;69.33
64853;BME280;56050;55.558;-4.644;2023-09-19T09:03:42;99127.44;;;13.90;69.38
64853;BME280;56050;55.558;-4.644;2023-09-19T09:06:13;99125.81;;;14.01;68.96
64853;BME280;56050;55.558;-4.644;2023-09-19T09:08:41;99135.78;;;14.13;69.12
64853;BME280;56050;55.558;-4.644;2023-09-19T09:11:07;99138.66;;;14.19;69.18
64853;BME280;56050;55.558;-4.644;2023-09-19T09:13:35;99140.47;;;14.22;69.10
64853;BME280;56050;55.558;-4.644;2023-09-19T09:16:01;99142.41;;;14.22;69.05
64853;BME280;56050;55.558;-4.644;2023-09-19T09:18:28;99151.31;;;14.22;69.15
64853;BME280;56050;55.558;-4.644;2023-09-19T09:20:55;99158.50;;;14.25;69.07
64853;BME280;56050;55.558;-4.644;2023-09-19T09:23:21;99152.94;;;14.29;69.10
64853;BME280;56050;55.558;-4.644;2023-09-19T09:25:52;99151.75;;;14.30;68.92
64853;BME280;56050;55.558;-4.644;2023-09-19T09:28:23;99151.66;;;14.33;69.17
64853;BME280;56050;55.558;-4.644;2023-09-19T09:30:50;99142.59;;;14.36;68.99
64853;BME280;56050;55.558;-4.644;2023-09-19T09:33:16;99156.00;;;14.40;69.20
64853;BME280;56050;55.558;-4.644;2023-09-19T09:35:52;99150.00;;;14.45;69.02
64853;BME280;56050;55.558;-4.644;2023-09-19T09:38:19;99146.25;;;14.51;69.18
64853;BME280;56050;55.558;-4.644;2023-09-19T09:40:49;99142.03;;;14.59;68.93
64853;BME280;56050;55.558;-4.644;2023-09-19T09:43:37;99147.47;;;14.68;69.08
64853;BME280;56050;55.558;-4.644;2023-09-19T09:46:17;99143.09;;;14.71;69.02
64853;BME280;56050;55.558;-4.644;2023-09-19T09:51:45;99149.56;;;14.74;68.69
64853;BME280;56050;55.558;-4.644;2023-09-19T09:54:24;99143.09;;;14.71;68.50
64853;BME280;56050;55.558;-4.644;2023-09-19T09:56:56;99148.22;;;14.69;68.84
64853;BME280;56050;55.558;-4.644;2023-09-19T09:59:50;99159.50;;;14.67;68.71
64853;BME280;56050;55.558;-4.644;2023-09-19T10:02:29;99157.84;;;14.70;68.97
64853;BME280;56050;55.558;-4.644;2023-09-19T10:04:59;99166.13;;;14.76;68.95
64853;BME280;56050;55.558;-4.644;2023-09-19T10:07:35;99170.22;;;14.80;68.99
64853;BME280;56050;55.558;-4.644;2023-09-19T10:10:06;99162.94;;;14.86;69.00
64853;BME280;56050;55.558;-4.644;2023-09-19T10:12:55;99166.28;;;14.90;68.72
64853;BME280;56050;55.558;-4.644;2023-09-19T10:15:31;99179.38;;;14.92;68.75
64853;BME280;56050;55.558;-4.644;2023-09-19T10:18:04;99174.28;;;14.94;68.71
64853;BME280;56050;55.558;-4.644;2023-09-19T10:20:30;99180.75;;;14.96;68.81
64853;BME280;56050;55.558;-4.644;2023-09-19T10:23:01;99175.91;;;15.00;68.63
64853;BME280;56050;55.558;-4.644;2023-09-19T10:25:29;99174.56;;;15.05;68.68
64853;BME280;56050;55.558;-4.644;2023-09-19T10:28:00;99173.94;;;15.10;68.60
64853;BME280;56050;55.558;-4.644;2023-09-19T10:30:29;99168.34;;;15.13;68.48
64853;BME280;56050;55.558;-4.644;2023-09-19T10:33:03;99158.72;;;15.12;68.41
64853;BME280;56050;55.558;-4.644;2023-09-19T10:35:32;99175.91;;;15.09;68.49
64853;BME280;56050;55.558;-4.644;2023-09-19T10:38:00;99166.28;;;14.99;68.57
64853;BME280;56050;55.558;-4.644;2023-09-19T10:40:29;99164.16;;;14.94;68.73
64853;BME280;56050;55.558;-4.644;2023-09-19T10:43:02;99165.81;;;14.92;68.71
64853;BME280;56050;55.558;-4.644;2023-09-19T10:45:35;99162.06;;;14.89;68.51
64853;BME280;56050;55.558;-4.644;2023-09-19T10:48:02;99168.38;;;14.86;68.64
64853;BME280;56050;55.558;-4.644;2023-09-19T10:50:36;99164.19;;;14.85;68.80
64853;BME280;56050;55.558;-4.644;2023-09-19T10:53:07;99170.03;;;14.84;68.86
64853;BME280;56050;55.558;-4.644;2023-09-19T10:55:36;99159.66;;;14.82;68.93
64853;BME280;56050;55.558;-4.644;2023-09-19T10:58:03;99163.56;;;14.81;69.10
64853;BME280;56050;55.558;-4.644;2023-09-19T11:00:53;99177.25;;;14.78;69.07
64853;BME280;56050;55.558;-4.644;2023-09-19T11:03:20;99178.19;;;14.75;69.08
64853;BME280;56050;55.558;-4.644;2023-09-19T11:06:08;99172.00;;;14.65;69.33
64853;BME280;56050;55.558;-4.644;2023-09-19T11:09:00;99164.47;;;14.60;69.35
64853;BME280;56050;55.558;-4.644;2023-09-19T11:11:49;99159.81;;;14.60;69.37
64853;BME280;56050;55.558;-4.644;2023-09-19T11:30:44;99175.16;;;14.91;69.62
64853;BME280;56050;55.558;-4.644;2023-09-19T11:33:20;99165.53;;;14.99;69.60
64853;BME280;56050;55.558;-4.644;2023-09-19T11:46:17;99199.09;;;15.38;68.76
64853;BME280;56050;55.558;-4.644;2023-09-19T11:48:48;99199.38;;;15.40;68.89
64853;BME280;56050;55.558;-4.644;2023-09-19T11:51:16;99191.50;;;15.42;68.70
64853;BME280;56050;55.558;-4.644;2023-09-19T11:53:50;99185.94;;;15.45;68.88
64853;BME280;56050;55.558;-4.644;2023-09-19T11:56:21;99187.00;;;15.48;68.89
64853;BME280;56050;55.558;-4.644;2023-09-19T11:58:50;99192.72;;;15.50;68.57
64853;BME280;56050;55.558;-4.644;2023-09-19T12:01:28;99189.09;;;15.53;68.52
64853;BME280;56050;55.558;-4.644;2023-09-19T12:03:56;99185.78;;;15.58;68.85
64853;BME280;56050;55.558;-4.644;2023-09-19T12:06:24;99194.97;;;15.60;68.60
64853;BME280;56050;55.558;-4.644;2023-09-19T12:08:50;99193.75;;;15.61;68.60
64853;BME280;56050;55.558;-4.644;2023-09-19T12:11:16;99193.75;;;15.61;68.42
64853;BME280;56050;55.558;-4.644;2023-09-19T12:13:47;99185.63;;;15.61;68.40
64853;BME280;56050;55.558;-4.644;2023-09-19T12:16:19;99194.53;;;15.62;68.60
64853;BME280;56050;55.558;-4.644;2023-09-19T12:18:48;99190.59;;;15.63;68.76
64853;BME280;56050;55.558;-4.644;2023-09-19T12:21:33;99177.75;;;15.63;68.30
64853;BME280;56050;55.558;-4.644;2023-09-19T12:24:13;99186.50;;;15.67;68.51
64853;BME280;56050;55.558;-4.644;2023-09-19T12:26:44;99181.84;;;15.68;68.29
64853;BME280;56050;55.558;-4.644;2023-09-19T12:29:16;99179.41;;;15.70;68.46
64853;BME280;56050;55.558;-4.644;2023-09-19T12:31:53;99182.41;;;15.72;68.47
64853;BME280;56050;55.558;-4.644;2023-09-19T12:34:30;99178.50;;;15.73;68.18
64853;BME280;56050;55.558;-4.644;2023-09-19T12:37:13;99175.50;;;15.71;68.10
64853;BME280;56050;55.558;-4.644;2023-09-19T12:40:09;99180.16;;;15.70;68.10
64853;BME280;56050;55.558;-4.644;2023-09-19T12:42:44;99183.63;;;15.71;68.42
64853;BME280;56050;55.558;-4.644;2023-09-19T12:45:10;99186.03;;;15.69;68.31
64853;BME280;56050;55.558;-4.644;2023-09-19T12:47:38;99178.66;;;15.69;68.23
64853;BME280;56050;55.558;-4.644;2023-09-19T12:50:05;99176.69;;;15.70;68.21
64853;BME280;56050;55.558;-4.644;2023-09-19T12:52:38;99175.03;;;15.72;68.41
64853;BME280;56050;55.558;-4.644;2023-09-19T12:55:07;99180.00;;;15.74;68.18
64853;BME280;56050;55.558;-4.644;2023-09-19T12:57:34;99181.34;;;15.78;68.03
64853;BME280;56050;55.558;-4.644;2023-09-19T13:00:03;99172.00;;;15.79;68.13
64853;BME280;56050;55.558;-4.644;2023-09-19T13:02:36;99165.63;;;15.82;68.21
64853;BME280;56050;55.558;-4.644;2023-09-19T13:05:03;99171.19;;;15.88;67.84
64853;BME280;56050;55.558;-4.644;2023-09-19T13:07:45;99159.72;;;15.93;68.21
64853;BME280;56050;55.558;-4.644;2023-09-19T13:10:12;99163.28;;;15.99;68.10
64853;BME280;56050;55.558;-4.644;2023-09-19T13:12:41;99167.06;;;16.02;67.93
64853;BME280;56050;55.558;-4.644;2023-09-19T13:15:13;99164.91;;;16.06;67.70
64853;BME280;56050;55.558;-4.644;2023-09-19T13:17:44;99158.56;;;16.09;68.01
64853;BME280;56050;55.558;-4.644;2023-09-19T13:20:36;99144.50;;;16.10;67.73
64853;BME280;56050;55.558;-4.644;2023-09-19T13:23:04;99146.31;;;16.13;67.78
64853;BME280;56050;55.558;-4.644;2023-09-19T13:25:35;99141.19;;;16.15;67.75
64853;BME280;56050;55.558;-4.644;2023-09-19T13:28:01;99140.44;;;16.15;67.76
64853;BME280;56050;55.558;-4.644;2023-09-19T13:30:30;99138.00;;;16.17;67.48
64853;BME280;56050;55.558;-4.644;2023-09-19T13:33:12;99140.72;;;16.17;67.56
64853;BME280;56050;55.558;-4.644;2023-09-19T13:35:39;99131.91;;;16.22;67.42
64853;BME280;56050;55.558;-4.644;2023-09-19T13:38:06;99130.06;;;16.28;67.50
64853;BME280;56050;55.558;-4.644;2023-09-19T13:40:34;99122.19;;;16.30;67.20
64853;BME280;56050;55.558;-4.644;2023-09-19T13:43:01;99124.91;;;16.30;67.52
64853;BME280;56050;55.558;-4.644;2023-09-19T13:45:26;99123.88;;;16.27;67.39